sensor_id;sensor_type;location;lat;lon;timestamp;P1;durP1;ratioP1;P2;durP2;ratioP2
41572;SDS011;27286;47.870;19.006;2022-11-20T00:01:14;21.73;;;11.43;;
41572;SDS011;27286;47.870;19.006;2022-11-20T00:03:46;23.45;;;11.30;;
41572;SDS011;27286;47.870;19.006;2022-11-20T00:06:18;22.77;;;11.38;;
41572;SDS011;27286;47.870;19.006;2022-11-20T00:09:06;26.05;;;12.07;;
41572;SDS011;27286;47.870;19.006;2022-11-20T00:11:34;27.90;;;12.75;;
41572;SDS011;27286;47.870;19.006;2022-11-20T00:14:02;26.00;;;12.15;;
41572;SDS011;27286;47.870;19.006;2022-11-20T00:16:30;27.98;;;13.25;;
41572;SDS011;27286;47.870;19.006;2022-11-20T00:19:09;25.83;;;13.02;;
41572;SDS011;27286;47.870;19.006;2022-11-20T00:21:39;23.23;;;12.85;;
41572;SDS011;27286;47.870;19.006;2022-11-20T00:24:08;25.15;;;13.25;;
41572;SDS011;27286;47.870;19.006;2022-11-20T00:26:59;37.35;;;13.98;;
41572;SDS011;27286;47.870;19.006;2022-11-20T00:29:34;30.50;;;14.60;;
41572;SDS011;27286;47.870;19.006;2022-11-20T00:32:20;29.27;;;13.75;;
41572;SDS011;27286;47.870;19.006;2022-11-20T00:34:56;28.30;;;13.68;;
41572;SDS011;27286;47.870;19.006;2022-11-20T00:46:32;25.63;;;13.02;;
41572;SDS011;27286;47.870;19.006;2022-11-20T00:49:24;28.58;;;13.38;;
41572;SDS011;27286;47.870;19.006;2022-11-20T00:52:16;25.17;;;11.88;;
41572;SDS011;27286;47.870;19.006;2022-11-20T00:55:02;27.50;;;13.55;;
41572;SDS011;27286;47.870;19.006;2022-11-20T00:58:00;26.70;;;12.90;;
41572;SDS011;27286;47.870;19.006;2022-11-20T01:01:05;22.27;;;12.30;;
41572;SDS011;27286;47.870;19.006;2022-11-20T01:04:14;25.08;;;12.95;;
41572;SDS011;27286;47.870;19.006;2022-11-20T01:06:41;24.13;;;12.35;;
41572;SDS011;27286;47.870;19.006;2022-11-20T01:09:31;22.05;;;12.10;;
41572;SDS011;27286;47.870;19.006;2022-11-20T01:12:40;24.13;;;12.90;;
41572;SDS011;27286;47.870;19.006;2022-11-20T01:15:29;27.13;;;12.93;;
41572;SDS011;27286;47.870;19.006;2022-11-20T01:18:16;23.35;;;11.15;;
41572;SDS011;27286;47.870;19.006;2022-11-20T01:20:46;24.98;;;12.27;;
41572;SDS011;27286;47.870;19.006;2022-11-20T01:23:21;23.30;;;12.23;;
41572;SDS011;27286;47.870;19.006;2022-11-20T01:25:50;25.40;;;13.73;;
41572;SDS011;27286;47.870;19.006;2022-11-20T01:28:19;24.60;;;13.43;;
41572;SDS011;27286;47.870;19.006;2022-11-20T01:30:45;25.08;;;12.60;;
41572;SDS011;27286;47.870;19.006;2022-11-20T01:33:23;22.85;;;12.13;;
41572;SDS011;27286;47.870;19.006;2022-11-20T01:35:49;24.35;;;12.45;;
41572;SDS011;27286;47.870;19.006;2022-11-20T01:38:17;29.00;;;13.85;;
41572;SDS011;27286;47.870;19.006;2022-11-20T01:41:08;30.15;;;13.05;;
41572;SDS011;27286;47.870;19.006;2022-11-20T01:43:56;26.30;;;12.05;;
41572;SDS011;27286;47.870;19.006;2022-11-20T01:46:33;26.90;;;12.73;;
41572;SDS011;27286;47.870;19.006;2022-11-20T01:52:07;25.73;;;12.30;;
41572;SDS011;27286;47.870;19.006;2022-11-20T01:55:07;27.35;;;11.95;;
41572;SDS011;27286;47.870;19.006;2022-11-20T01:57:44;26.25;;;12.00;;
41572;SDS011;27286;47.870;19.006;2022-11-20T02:00:21;25.08;;;12.52;;
41572;SDS011;27286;47.870;19.006;2022-11-20T02:02:57;22.90;;;10.98;;
41572;SDS011;27286;47.870;19.006;2022-11-20T02:20:59;26.40;;;13.02;;
41572;SDS011;27286;47.870;19.006;2022-11-20T02:24:15;23.60;;;13.05;;
41572;SDS011;27286;47.870;19.006;2022-11-20T02:26:48;22.83;;;11.85;;
41572;SDS011;27286;47.870;19.006;2022-11-20T02:32:50;22.73;;;11.27;;
41572;SDS011;27286;47.870;19.006;2022-11-20T02:38:08;23.50;;;11.20;;
41572;SDS011;27286;47.870;19.006;2022-11-20T02:40:58;27.13;;;11.18;;
41572;SDS011;27286;47.870;19.006;2022-11-20T02:43:30;20.67;;;10.73;;
41572;SDS011;27286;47.870;19.006;2022-11-20T02:46:18;21.33;;;11.77;;
41572;SDS011;27286;47.870;19.006;2022-11-20T02:48:52;22.42;;;11.05;;
41572;SDS011;27286;47.870;19.006;2022-11-20T02:51:41;22.88;;;10.48;;
41572;SDS011;27286;47.870;19.006;2022-11-20T02:54:32;20.10;;;10.32;;
41572;SDS011;27286;47.870;19.006;2022-11-20T02:57:26;19.65;;;9.50;;
41572;SDS011;27286;47.870;19.006;2022-11-20T03:00:02;21.65;;;10.60;;
41572;SDS011;27286;47.870;19.006;2022-11-20T03:02:36;24.77;;;10.48;;
41572;SDS011;27286;47.870;19.006;2022-11-20T03:05:26;19.58;;;10.27;;
41572;SDS011;27286;47.870;19.006;2022-11-20T03:07:52;24.48;;;11.38;;
41572;SDS011;27286;47.870;19.006;2022-11-20T03:10:51;18.77;;;10.15;;
41572;SDS011;27286;47.870;19.006;2022-11-20T03:13:22;20.92;;;11.02;;
41572;SDS011;27286;47.870;19.006;2022-11-20T03:15:50;20.65;;;10.38;;
41572;SDS011;27286;47.870;19.006;2022-11-20T03:18:29;20.33;;;10.30;;
41572;SDS011;27286;47.870;19.006;2022-11-20T03:21:15;21.75;;;10.82;;
41572;SDS011;27286;47.870;19.006;2022-11-20T03:23:44;26.60;;;11.18;;
41572;SDS011;27286;47.870;19.006;2022-11-20T03:26:10;17.30;;;10.43;;
41572;SDS011;27286;47.870;19.006;2022-11-20T03:29:05;20.42;;;9.82;;
41572;SDS011;27286;47.870;19.006;2022-11-20T03:31:40;19.02;;;9.70;;
41572;SDS011;27286;47.870;19.006;2022-11-20T03:34:24;23.17;;;10.52;;
41572;SDS011;27286;47.870;19.006;2022-11-20T03:36:50;20.88;;;11.15;;
41572;SDS011;27286;47.870;19.006;2022-11-20T03:39:31;21.63;;;10.80;;
41572;SDS011;27286;47.870;19.006;2022-11-20T03:42:27;21.67;;;10.02;;
41572;SDS011;27286;47.870;19.006;2022-11-20T03:45:13;19.63;;;10.88;;
41572;SDS011;27286;47.870;19.006;2022-11-20T03:48:06;21.58;;;10.30;;
41572;SDS011;27286;47.870;19.006;2022-11-20T03:54:16;20.48;;;11.02;;
41572;SDS011;27286;47.870;19.006;2022-11-20T03:56:50;23.13;;;10.13;;
41572;SDS011;27286;47.870;19.006;2022-11-20T03:59:28;25.00;;;11.60;;
41572;SDS011;27286;47.870;19.006;2022-11-20T04:02:28;22.98;;;12.02;;
41572;SDS011;27286;47.870;19.006;2022-11-20T04:04:59;20.85;;;10.93;;
41572;SDS011;27286;47.870;19.006;2022-11-20T04:07:27;20.23;;;10.30;;
41572;SDS011;27286;47.870;19.006;2022-11-20T04:10:41;18.83;;;9.98;;
41572;SDS011;27286;47.870;19.006;2022-11-20T04:16:52;20.85;;;9.25;;
41572;SDS011;27286;47.870;19.006;2022-11-20T04:19:25;24.35;;;11.18;;
41572;SDS011;27286;47.870;19.006;2022-11-20T04:22:14;18.85;;;10.18;;
41572;SDS011;27286;47.870;19.006;2022-11-20T04:24:42;20.95;;;10.18;;
41572;SDS011;27286;47.870;19.006;2022-11-20T04:27:09;19.40;;;9.35;;
41572;SDS011;27286;47.870;19.006;2022-11-20T04:29:39;22.02;;;9.68;;
41572;SDS011;27286;47.870;19.006;2022-11-20T04:32:17;23.38;;;10.25;;
41572;SDS011;27286;47.870;19.006;2022-11-20T04:35:09;22.58;;;10.35;;
41572;SDS011;27286;47.870;19.006;2022-11-20T04:37:40;19.50;;;9.35;;
41572;SDS011;27286;47.870;19.006;2022-11-20T04:40:09;18.77;;;9.68;;
41572;SDS011;27286;47.870;19.006;2022-11-20T04:42:55;17.73;;;8.80;;
41572;SDS011;27286;47.870;19.006;2022-11-20T04:45:25;15.75;;;9.25;;
41572;SDS011;27286;47.870;19.006;2022-11-20T04:48:53;17.27;;;8.80;;
41572;SDS011;27286;47.870;19.006;2022-11-20T04:51:43;18.65;;;9.05;;
41572;SDS011;27286;47.870;19.006;2022-11-20T04:55:07;22.00;;;9.13;;
41572;SDS011;27286;47.870;19.006;2022-11-20T05:00:29;17.25;;;7.88;;
41572;SDS011;27286;47.870;19.006;2022-11-20T05:03:25;18.70;;;8.63;;
41572;SDS011;27286;47.870;19.006;2022-11-20T05:05:55;21.90;;;9.38;;
41572;SDS011;27286;47.870;19.006;2022-11-20T05:08:23;19.33;;;9.07;;
41572;SDS011;27286;47.870;19.006;2022-11-20T05:10:58;21.92;;;8.63;;
41572;SDS011;27286;47.870;19.006;2022-11-20T05:13:32;17.00;;;9.05;;
41572;SDS011;27286;47.870;19.006;2022-11-20T05:16:24;18.52;;;8.57;;
41572;SDS011;27286;47.870;19.006;2022-11-20T05:19:02;16.27;;;8.57;;
41572;SDS011;27286;47.870;19.006;2022-11-20T05:21:30;16.45;;;8.82;;
41572;SDS011;27286;47.870;19.006;2022-11-20T05:24:01;15.73;;;8.20;;
41572;SDS011;27286;47.870;19.006;2022-11-20T05:26:30;20.20;;;8.88;;
41572;SDS011;27286;47.870;19.006;2022-11-20T05:29:00;16.95;;;8.75;;
41572;SDS011;27286;47.870;19.006;2022-11-20T05:31:36;18.40;;;9.70;;
41572;SDS011;27286;47.870;19.006;2022-11-20T05:34:09;16.50;;;8.02;;
41572;SDS011;27286;47.870;19.006;2022-11-20T05:36:43;20.25;;;9.32;;
41572;SDS011;27286;47.870;19.006;2022-11-20T05:39:15;19.05;;;10.05;;
41572;SDS011;27286;47.870;19.006;2022-11-20T05:41:51;14.82;;;7.20;;
41572;SDS011;27286;47.870;19.006;2022-11-20T05:44:42;19.95;;;8.88;;
41572;SDS011;27286;47.870;19.006;2022-11-20T05:47:31;21.15;;;9.27;;
41572;SDS011;27286;47.870;19.006;2022-11-20T05:49:59;17.52;;;8.98;;
41572;SDS011;27286;47.870;19.006;2022-11-20T05:52:28;22.05;;;9.32;;
41572;SDS011;27286;47.870;19.006;2022-11-20T05:55:18;18.58;;;8.45;;
41572;SDS011;27286;47.870;19.006;2022-11-20T05:57:46;17.00;;;8.07;;
41572;SDS011;27286;47.870;19.006;2022-11-20T06:00:25;18.15;;;8.60;;
41572;SDS011;27286;47.870;19.006;2022-11-20T06:02:51;22.63;;;9.40;;
41572;SDS011;27286;47.870;19.006;2022-11-20T06:16:33;19.80;;;9.60;;
41572;SDS011;27286;47.870;19.006;2022-11-20T06:19:06;18.35;;;7.78;;
41572;SDS011;27286;47.870;19.006;2022-11-20T06:21:59;16.80;;;7.75;;
41572;SDS011;27286;47.870;19.006;2022-11-20T06:24:26;17.27;;;8.35;;
41572;SDS011;27286;47.870;19.006;2022-11-20T06:27:15;15.00;;;7.90;;
41572;SDS011;27286;47.870;19.006;2022-11-20T06:32:39;16.33;;;8.68;;
41572;SDS011;27286;47.870;19.006;2022-11-20T06:35:31;16.75;;;8.15;;
41572;SDS011;27286;47.870;19.006;2022-11-20T06:38:09;19.90;;;8.35;;
41572;SDS011;27286;47.870;19.006;2022-11-20T06:58:02;17.92;;;8.20;;
41572;SDS011;27286;47.870;19.006;2022-11-20T07:01:06;17.38;;;8.13;;
41572;SDS011;27286;47.870;19.006;2022-11-20T07:04:07;19.08;;;7.82;;
41572;SDS011;27286;47.870;19.006;2022-11-20T07:07:03;14.85;;;7.50;;
41572;SDS011;27286;47.870;19.006;2022-11-20T07:09:37;22.83;;;8.70;;
41572;SDS011;27286;47.870;19.006;2022-11-20T07:12:26;17.20;;;9.55;;
41572;SDS011;27286;47.870;19.006;2022-11-20T07:14:57;15.70;;;7.68;;
41572;SDS011;27286;47.870;19.006;2022-11-20T07:17:26;19.40;;;9.05;;
41572;SDS011;27286;47.870;19.006;2022-11-20T07:19:58;18.90;;;9.15;;
41572;SDS011;27286;47.870;19.006;2022-11-20T07:22:27;16.70;;;7.90;;
41572;SDS011;27286;47.870;19.006;2022-11-20T07:24:55;15.90;;;7.40;;
41572;SDS011;27286;47.870;19.006;2022-11-20T07:27:44;17.70;;;8.20;;
41572;SDS011;27286;47.870;19.006;2022-11-20T07:30:36;16.35;;;8.15;;
41572;SDS011;27286;47.870;19.006;2022-11-20T07:33:07;17.50;;;8.88;;
41572;SDS011;27286;47.870;19.006;2022-11-20T07:35:36;19.67;;;9.07;;
41572;SDS011;27286;47.870;19.006;2022-11-20T07:38:07;20.25;;;8.68;;
41572;SDS011;27286;47.870;19.006;2022-11-20T07:40:36;16.95;;;8.77;;
41572;SDS011;27286;47.870;19.006;2022-11-20T07:45:57;17.38;;;8.57;;
41572;SDS011;27286;47.870;19.006;2022-11-20T07:58:45;16.25;;;7.32;;
41572;SDS011;27286;47.870;19.006;2022-11-20T08:01:10;19.05;;;9.23;;
41572;SDS011;27286;47.870;19.006;2022-11-20T08:03:36;14.23;;;6.82;;
41572;SDS011;27286;47.870;19.006;2022-11-20T08:06:05;14.80;;;6.75;;
41572;SDS011;27286;47.870;19.006;2022-11-20T08:08:52;16.23;;;7.78;;
41572;SDS011;27286;47.870;19.006;2022-11-20T08:11:21;19.98;;;7.75;;
41572;SDS011;27286;47.870;19.006;2022-11-20T08:14:25;50.90;;;21.40;;
41572;SDS011;27286;47.870;19.006;2022-11-20T08:16:52;50.47;;;21.67;;
41572;SDS011;27286;47.870;19.006;2022-11-20T08:19:19;17.98;;;9.65;;
41572;SDS011;27286;47.870;19.006;2022-11-20T08:21:45;13.68;;;7.20;;
41572;SDS011;27286;47.870;19.006;2022-11-20T08:24:10;12.80;;;5.80;;
41572;SDS011;27286;47.870;19.006;2022-11-20T08:26:37;13.55;;;6.78;;
41572;SDS011;27286;47.870;19.006;2022-11-20T08:29:04;15.75;;;7.57;;
41572;SDS011;27286;47.870;19.006;2022-11-20T08:31:30;13.70;;;7.13;;
41572;SDS011;27286;47.870;19.006;2022-11-20T08:33:57;15.18;;;7.57;;
41572;SDS011;27286;47.870;19.006;2022-11-20T08:36:23;16.85;;;8.57;;
41572;SDS011;27286;47.870;19.006;2022-11-20T08:38:52;17.40;;;8.38;;
41572;SDS011;27286;47.870;19.006;2022-11-20T08:42:06;18.13;;;8.77;;
41572;SDS011;27286;47.870;19.006;2022-11-20T08:44:33;21.80;;;12.00;;
41572;SDS011;27286;47.870;19.006;2022-11-20T08:47:06;31.70;;;18.30;;
41572;SDS011;27286;47.870;19.006;2022-11-20T08:49:34;20.80;;;11.50;;
41572;SDS011;27286;47.870;19.006;2022-11-20T08:52:26;17.10;;;9.75;;
41572;SDS011;27286;47.870;19.006;2022-11-20T08:54:58;18.05;;;10.35;;
41572;SDS011;27286;47.870;19.006;2022-11-20T08:57:32;23.67;;;13.00;;
41572;SDS011;27286;47.870;19.006;2022-11-20T09:00:20;21.33;;;11.23;;
41572;SDS011;27286;47.870;19.006;2022-11-20T09:02:46;27.65;;;13.55;;
41572;SDS011;27286;47.870;19.006;2022-11-20T09:05:17;23.65;;;13.40;;
41572;SDS011;27286;47.870;19.006;2022-11-20T09:08:08;22.52;;;11.95;;
41572;SDS011;27286;47.870;19.006;2022-11-20T09:10:34;24.02;;;11.60;;
41572;SDS011;27286;47.870;19.006;2022-11-20T09:13:02;21.73;;;12.95;;
41572;SDS011;27286;47.870;19.006;2022-11-20T09:15:29;21.67;;;12.07;;
41572;SDS011;27286;47.870;19.006;2022-11-20T09:17:56;25.77;;;13.18;;
41572;SDS011;27286;47.870;19.006;2022-11-20T09:20:25;20.50;;;11.35;;
41572;SDS011;27286;47.870;19.006;2022-11-20T09:23:37;24.98;;;11.30;;
41572;SDS011;27286;47.870;19.006;2022-11-20T09:29:39;19.83;;;10.95;;
41572;SDS011;27286;47.870;19.006;2022-11-20T09:32:28;21.88;;;10.38;;
41572;SDS011;27286;47.870;19.006;2022-11-20T09:35:13;20.95;;;10.93;;
41572;SDS011;27286;47.870;19.006;2022-11-20T09:37:44;17.77;;;10.68;;
41572;SDS011;27286;47.870;19.006;2022-11-20T09:40:30;21.92;;;10.85;;
41572;SDS011;27286;47.870;19.006;2022-11-20T09:55:31;21.17;;;9.32;;
41572;SDS011;27286;47.870;19.006;2022-11-20T09:57:59;17.70;;;9.48;;
41572;SDS011;27286;47.870;19.006;2022-11-20T10:00:24;14.10;;;7.82;;
41572;SDS011;27286;47.870;19.006;2022-11-20T10:02:55;16.95;;;8.75;;
41572;SDS011;27286;47.870;19.006;2022-11-20T10:05:27;17.48;;;9.38;;
41572;SDS011;27286;47.870;19.006;2022-11-20T10:11:29;16.38;;;8.50;;
41572;SDS011;27286;47.870;19.006;2022-11-20T10:14:20;16.88;;;9.55;;
41572;SDS011;27286;47.870;19.006;2022-11-20T10:17:03;15.93;;;8.95;;
41572;SDS011;27286;47.870;19.006;2022-11-20T10:25:00;18.90;;;9.93;;
41572;SDS011;27286;47.870;19.006;2022-11-20T10:33:25;22.05;;;10.30;;
41572;SDS011;27286;47.870;19.006;2022-11-20T10:38:40;14.93;;;7.55;;
41572;SDS011;27286;47.870;19.006;2022-11-20T10:41:13;20.48;;;10.02;;
41572;SDS011;27286;47.870;19.006;2022-11-20T10:44:02;18.30;;;9.18;;
41572;SDS011;27286;47.870;19.006;2022-11-20T10:47:04;14.48;;;8.45;;
41572;SDS011;27286;47.870;19.006;2022-11-20T10:49:24;14.63;;;7.70;;
41572;SDS011;27286;47.870;19.006;2022-11-20T10:51:53;17.27;;;8.43;;
41572;SDS011;27286;47.870;19.006;2022-11-20T10:54:32;14.75;;;8.68;;
41572;SDS011;27286;47.870;19.006;2022-11-20T11:00:19;17.60;;;9.73;;
41572;SDS011;27286;47.870;19.006;2022-11-20T11:02:52;20.42;;;10.95;;
41572;SDS011;27286;47.870;19.006;2022-11-20T11:07:45;21.70;;;11.85;;
41572;SDS011;27286;47.870;19.006;2022-11-20T11:10:15;20.70;;;11.10;;
41572;SDS011;27286;47.870;19.006;2022-11-20T11:12:46;14.93;;;7.68;;
41572;SDS011;27286;47.870;19.006;2022-11-20T11:15:36;15.02;;;7.68;;
41572;SDS011;27286;47.870;19.006;2022-11-20T11:18:04;13.07;;;7.68;;
41572;SDS011;27286;47.870;19.006;2022-11-20T11:20:30;13.25;;;7.60;;
41572;SDS011;27286;47.870;19.006;2022-11-20T11:22:57;17.38;;;9.05;;
41572;SDS011;27286;47.870;19.006;2022-11-20T11:25:31;14.38;;;8.77;;
41572;SDS011;27286;47.870;19.006;2022-11-20T11:28:01;13.73;;;6.88;;
41572;SDS011;27286;47.870;19.006;2022-11-20T11:30:29;14.15;;;7.78;;
41572;SDS011;27286;47.870;19.006;2022-11-20T11:33:06;14.35;;;8.18;;
41572;SDS011;27286;47.870;19.006;2022-11-20T11:35:39;15.65;;;8.68;;
41572;SDS011;27286;47.870;19.006;2022-11-20T11:38:12;15.40;;;7.53;;
41572;SDS011;27286;47.870;19.006;2022-11-20T11:40:44;15.20;;;9.05;;
41572;SDS011;27286;47.870;19.006;2022-11-20T11:43:19;11.23;;;6.50;;
41572;SDS011;27286;47.870;19.006;2022-11-20T11:46:23;14.35;;;7.70;;
41572;SDS011;27286;47.870;19.006;2022-11-20T11:54:41;18.13;;;10.30;;
41572;SDS011;27286;47.870;19.006;2022-11-20T12:00:18;15.70;;;9.77;;
41572;SDS011;27286;47.870;19.006;2022-11-20T12:05:16;13.98;;;8.65;;
41572;SDS011;27286;47.870;19.006;2022-11-20T12:07:46;15.00;;;8.50;;
41572;SDS011;27286;47.870;19.006;2022-11-20T12:10:39;14.02;;;8.73;;
41572;SDS011;27286;47.870;19.006;2022-11-20T12:13:09;10.73;;;7.57;;
41572;SDS011;27286;47.870;19.006;2022-11-20T12:15:37;9.23;;;5.57;;
41572;SDS011;27286;47.870;19.006;2022-11-20T12:18:14;10.50;;;6.43;;
41572;SDS011;27286;47.870;19.006;2022-11-20T12:20:45;11.43;;;6.88;;
41572;SDS011;27286;47.870;19.006;2022-11-20T12:23:28;13.35;;;8.02;;
41572;SDS011;27286;47.870;19.006;2022-11-20T12:26:07;11.70;;;7.05;;
41572;SDS011;27286;47.870;19.006;2022-11-20T12:28:50;12.02;;;7.47;;
41572;SDS011;27286;47.870;19.006;2022-11-20T12:39:40;11.50;;;7.82;;
41572;SDS011;27286;47.870;19.006;2022-11-20T12:51:03;17.00;;;9.50;;
41572;SDS011;27286;47.870;19.006;2022-11-20T12:59:26;21.20;;;12.88;;
41572;SDS011;27286;47.870;19.006;2022-11-20T13:02:13;21.77;;;11.70;;
41572;SDS011;27286;47.870;19.006;2022-11-20T13:08:27;21.88;;;12.65;;
41572;SDS011;27286;47.870;19.006;2022-11-20T13:19:49;25.83;;;13.85;;
41572;SDS011;27286;47.870;19.006;2022-11-20T13:22:25;19.80;;;11.00;;
41572;SDS011;27286;47.870;19.006;2022-11-20T13:24:52;20.92;;;11.65;;
41572;SDS011;27286;47.870;19.006;2022-11-20T13:27:18;16.90;;;9.07;;
41572;SDS011;27286;47.870;19.006;2022-11-20T13:29:47;21.80;;;12.55;;
41572;SDS011;27286;47.870;19.006;2022-11-20T13:32:25;25.48;;;14.18;;
41572;SDS011;27286;47.870;19.006;2022-11-20T13:34:59;16.90;;;10.38;;
41572;SDS011;27286;47.870;19.006;2022-11-20T13:40:20;18.17;;;9.60;;
41572;SDS011;27286;47.870;19.006;2022-11-20T13:45:23;20.83;;;11.38;;
41572;SDS011;27286;47.870;19.006;2022-11-20T13:47:51;25.40;;;11.63;;
41572;SDS011;27286;47.870;19.006;2022-11-20T13:50:18;29.88;;;16.55;;
41572;SDS011;27286;47.870;19.006;2022-11-20T13:52:55;24.33;;;13.63;;
41572;SDS011;27286;47.870;19.006;2022-11-20T13:55:42;31.40;;;16.67;;
41572;SDS011;27286;47.870;19.006;2022-11-20T13:58:46;20.25;;;11.55;;
41572;SDS011;27286;47.870;19.006;2022-11-20T14:04:06;21.77;;;10.90;;
41572;SDS011;27286;47.870;19.006;2022-11-20T14:06:46;27.67;;;12.55;;
41572;SDS011;27286;47.870;19.006;2022-11-20T14:09:30;19.52;;;11.30;;
41572;SDS011;27286;47.870;19.006;2022-11-20T14:11:57;21.35;;;11.50;;
41572;SDS011;27286;47.870;19.006;2022-11-20T14:14:27;20.17;;;12.27;;
41572;SDS011;27286;47.870;19.006;2022-11-20T14:17:17;23.83;;;10.38;;
41572;SDS011;27286;47.870;19.006;2022-11-20T14:19:49;18.95;;;11.00;;
41572;SDS011;27286;47.870;19.006;2022-11-20T14:22:20;22.45;;;11.35;;
41572;SDS011;27286;47.870;19.006;2022-11-20T14:24:48;19.73;;;11.75;;
41572;SDS011;27286;47.870;19.006;2022-11-20T14:27:15;17.95;;;11.13;;
41572;SDS011;27286;47.870;19.006;2022-11-20T14:29:44;21.58;;;11.70;;
41572;SDS011;27286;47.870;19.006;2022-11-20T14:32:18;15.98;;;8.85;;
41572;SDS011;27286;47.870;19.006;2022-11-20T14:34:47;17.33;;;9.63;;
41572;SDS011;27286;47.870;19.006;2022-11-20T14:37:23;19.88;;;10.88;;
41572;SDS011;27286;47.870;19.006;2022-11-20T14:39:52;27.30;;;13.52;;
41572;SDS011;27286;47.870;19.006;2022-11-20T14:42:24;30.08;;;15.18;;
41572;SDS011;27286;47.870;19.006;2022-11-20T14:44:52;25.58;;;13.15;;
41572;SDS011;27286;47.870;19.006;2022-11-20T14:47:21;22.48;;;11.70;;
41572;SDS011;27286;47.870;19.006;2022-11-20T14:49:50;18.38;;;9.48;;
41572;SDS011;27286;47.870;19.006;2022-11-20T14:52:17;15.88;;;8.82;;
41572;SDS011;27286;47.870;19.006;2022-11-20T14:54:49;17.52;;;9.10;;
41572;SDS011;27286;47.870;19.006;2022-11-20T14:57:24;17.50;;;8.98;;
41572;SDS011;27286;47.870;19.006;2022-11-20T15:02:29;18.38;;;9.43;;
41572;SDS011;27286;47.870;19.006;2022-11-20T15:04:59;18.50;;;9.65;;
41572;SDS011;27286;47.870;19.006;2022-11-20T15:07:35;18.23;;;9.77;;
41572;SDS011;27286;47.870;19.006;2022-11-20T15:10:04;16.58;;;8.77;;
41572;SDS011;27286;47.870;19.006;2022-11-20T15:12:46;24.17;;;12.00;;
41572;SDS011;27286;47.870;19.006;2022-11-20T15:15:16;33.77;;;14.10;;
41572;SDS011;27286;47.870;19.006;2022-11-20T15:17:46;28.58;;;13.93;;
41572;SDS011;27286;47.870;19.006;2022-11-20T15:20:13;33.85;;;14.55;;
41572;SDS011;27286;47.870;19.006;2022-11-20T15:22:40;28.88;;;14.88;;
41572;SDS011;27286;47.870;19.006;2022-11-20T15:25:13;33.70;;;15.82;;
41572;SDS011;27286;47.870;19.006;2022-11-20T15:27:40;33.08;;;15.45;;
41572;SDS011;27286;47.870;19.006;2022-11-20T15:30:16;32.60;;;13.93;;
41572;SDS011;27286;47.870;19.006;2022-11-20T15:32:44;21.83;;;10.80;;
41572;SDS011;27286;47.870;19.006;2022-11-20T15:35:11;25.80;;;12.02;;
41572;SDS011;27286;47.870;19.006;2022-11-20T15:37:37;46.03;;;23.92;;
41572;SDS011;27286;47.870;19.006;2022-11-20T15:40:03;34.05;;;16.42;;
41572;SDS011;27286;47.870;19.006;2022-11-20T15:42:29;31.85;;;16.38;;
41572;SDS011;27286;47.870;19.006;2022-11-20T15:44:55;35.28;;;18.95;;
41572;SDS011;27286;47.870;19.006;2022-11-20T15:47:28;52.85;;;31.10;;
41572;SDS011;27286;47.870;19.006;2022-11-20T15:52:21;26.35;;;15.50;;
41572;SDS011;27286;47.870;19.006;2022-11-20T15:54:46;24.85;;;12.68;;
41572;SDS011;27286;47.870;19.006;2022-11-20T15:57:12;24.40;;;13.40;;
41572;SDS011;27286;47.870;19.006;2022-11-20T15:59:38;34.20;;;16.48;;
41572;SDS011;27286;47.870;19.006;2022-11-20T16:04:52;31.42;;;16.70;;
41572;SDS011;27286;47.870;19.006;2022-11-20T16:07:18;29.38;;;16.23;;
41572;SDS011;27286;47.870;19.006;2022-11-20T16:09:43;32.38;;;15.75;;
41572;SDS011;27286;47.870;19.006;2022-11-20T16:12:09;27.17;;;15.15;;
41572;SDS011;27286;47.870;19.006;2022-11-20T16:14:54;33.25;;;16.40;;
41572;SDS011;27286;47.870;19.006;2022-11-20T16:17:45;39.95;;;20.27;;
41572;SDS011;27286;47.870;19.006;2022-11-20T16:20:11;29.02;;;17.85;;
41572;SDS011;27286;47.870;19.006;2022-11-20T16:22:36;36.28;;;18.73;;
41572;SDS011;27286;47.870;19.006;2022-11-20T16:25:02;34.80;;;19.00;;
41572;SDS011;27286;47.870;19.006;2022-11-20T16:27:27;25.00;;;15.18;;
41572;SDS011;27286;47.870;19.006;2022-11-20T16:29:53;25.73;;;13.88;;
41572;SDS011;27286;47.870;19.006;2022-11-20T16:32:18;22.92;;;12.48;;
41572;SDS011;27286;47.870;19.006;2022-11-20T16:37:33;15.90;;;7.95;;
41572;SDS011;27286;47.870;19.006;2022-11-20T16:40:49;17.13;;;7.63;;
41572;SDS011;27286;47.870;19.006;2022-11-20T16:43:26;16.05;;;7.00;;
41572;SDS011;27286;47.870;19.006;2022-11-20T16:45:51;14.60;;;6.38;;
41572;SDS011;27286;47.870;19.006;2022-11-20T16:48:17;12.57;;;6.05;;
41572;SDS011;27286;47.870;19.006;2022-11-20T16:55:56;15.57;;;6.82;;
41572;SDS011;27286;47.870;19.006;2022-11-20T16:58:34;14.52;;;6.63;;
41572;SDS011;27286;47.870;19.006;2022-11-20T17:01:06;13.25;;;4.75;;
41572;SDS011;27286;47.870;19.006;2022-11-20T17:06:12;10.65;;;4.85;;
41572;SDS011;27286;47.870;19.006;2022-11-20T17:08:42;12.55;;;6.20;;
41572;SDS011;27286;47.870;19.006;2022-11-20T17:11:12;12.52;;;6.30;;
41572;SDS011;27286;47.870;19.006;2022-11-20T17:13:40;16.00;;;7.45;;
41572;SDS011;27286;47.870;19.006;2022-11-20T17:16:09;81.03;;;37.85;;
41572;SDS011;27286;47.870;19.006;2022-11-20T17:18:42;24.13;;;13.27;;
41572;SDS011;27286;47.870;19.006;2022-11-20T17:21:35;16.70;;;8.73;;
41572;SDS011;27286;47.870;19.006;2022-11-20T17:24:22;17.80;;;7.63;;
41572;SDS011;27286;47.870;19.006;2022-11-20T17:26:54;20.80;;;6.78;;
41572;SDS011;27286;47.870;19.006;2022-11-20T17:29:21;11.63;;;5.00;;
41572;SDS011;27286;47.870;19.006;2022-11-20T17:32:07;11.68;;;5.63;;
41572;SDS011;27286;47.870;19.006;2022-11-20T17:38:01;22.70;;;10.95;;
41572;SDS011;27286;47.870;19.006;2022-11-20T17:40:46;14.63;;;8.30;;
41572;SDS011;27286;47.870;19.006;2022-11-20T17:43:45;12.77;;;6.75;;
41572;SDS011;27286;47.870;19.006;2022-11-20T17:46:46;9.60;;;5.45;;
41572;SDS011;27286;47.870;19.006;2022-11-20T17:49:50;19.67;;;8.98;;
41572;SDS011;27286;47.870;19.006;2022-11-20T17:52:43;16.50;;;7.07;;
41572;SDS011;27286;47.870;19.006;2022-11-20T17:59:44;12.80;;;5.53;;
41572;SDS011;27286;47.870;19.006;2022-11-20T18:02:53;12.70;;;5.93;;
41572;SDS011;27286;47.870;19.006;2022-11-20T18:06:17;12.75;;;5.63;;
41572;SDS011;27286;47.870;19.006;2022-11-20T18:08:53;12.73;;;6.10;;
41572;SDS011;27286;47.870;19.006;2022-11-20T18:11:20;14.60;;;6.45;;
41572;SDS011;27286;47.870;19.006;2022-11-20T18:14:14;11.85;;;6.07;;
41572;SDS011;27286;47.870;19.006;2022-11-20T18:17:20;14.60;;;6.30;;
41572;SDS011;27286;47.870;19.006;2022-11-20T18:19:50;18.20;;;6.93;;
41572;SDS011;27286;47.870;19.006;2022-11-20T18:22:21;12.75;;;6.28;;
41572;SDS011;27286;47.870;19.006;2022-11-20T18:24:47;10.80;;;5.43;;
41572;SDS011;27286;47.870;19.006;2022-11-20T18:27:22;14.98;;;6.07;;
41572;SDS011;27286;47.870;19.006;2022-11-20T18:30:03;13.77;;;6.38;;
41572;SDS011;27286;47.870;19.006;2022-11-20T18:33:00;13.30;;;6.18;;
41572;SDS011;27286;47.870;19.006;2022-11-20T18:35:32;15.25;;;6.45;;
41572;SDS011;27286;47.870;19.006;2022-11-20T18:38:42;10.98;;;5.65;;
41572;SDS011;27286;47.870;19.006;2022-11-20T18:41:26;11.82;;;5.65;;